Berkley, Michigan
Current Conditions -  °F | °C
As of 5:14 AM on Sunday 25 Jan 2015 (Local Time) from KVLL Reporting Station
Overcast Overcast  
Wind Chill: 22°   Ceiling: 1300
Heat Index: 31°   Visibility: 10mi
Dew Point: 25°   Wind: 9mph
Humidity: 79%   Direction: 20°NNE
Pressure: 29.78"   Gusts: NA
Location:  42.5°N, 83.18°W
Report Text: KVLL 251014Z AUTO 02008KT 10SM OVC013 M01/M04 A2978 RMK AO2 T10081041
Loading
Personal Weather Stations






























Interactive Weather Map New forecast layout! Learn more

10-Day Weather Forecast

Advertisements
Track Severe Weather on mobile